<?xml version="1.0" encoding="UTF-8" standalone="no" ?>
<gpx xmlns="http://www.topografix.com/GPX/1/1" xmlns:xsi="http://www.w3.org/2001/XMLSchema-instance" xsi:schemaLocation="http://www.topografix.com/GPX/1/1 http://www.topografix.com/GPX/1/1/gpx.xsd" version="1.1" creator="VisuGPX - https://www.visugpx.com">
  <metadata>
    <name>La Gourgue d'Asque en boucle</name>
  </metadata>
  <trk>
    <name><![CDATA[La Gourgue d'Asque en boucle]]></name>
    <extensions>
      <line xmlns="http://www.topografix.com/GPX/gpx_style/0/2">
        <color>0000FF</color>
        <width>4</width>
      </line>
    </extensions>
    <trkseg>
      <trkpt lat="43.02343" lon="0.26306">
        <ele>568.321</ele>
        <time>2013-03-11T09:17:58Z</time>
      </trkpt>
      <trkpt lat="43.02343" lon="0.26306">
        <ele>568.321</ele>
        <time>2013-03-11T09:17:58Z</time>
      </trkpt>
      <trkpt lat="43.02353" lon="0.26271">
        <ele>538.541</ele>
        <time>2013-03-11T09:18:31Z</time>
      </trkpt>
      <trkpt lat="43.02378" lon="0.2625">
        <ele>501.005</ele>
        <time>2013-03-11T09:24:17Z</time>
      </trkpt>
      <trkpt lat="43.02362" lon="0.26283">
        <ele>501.507</ele>
        <time>2013-03-11T09:24:49Z</time>
      </trkpt>
      <trkpt lat="43.02379" lon="0.26248">
        <ele>500.556</ele>
        <time>2013-03-11T09:25:12Z</time>
      </trkpt>
      <trkpt lat="43.0232" lon="0.26325">
        <ele>504.363</ele>
        <time>2013-03-11T09:26:15Z</time>
      </trkpt>
      <trkpt lat="43.02245" lon="0.26332">
        <ele>504.812</ele>
        <time>2013-03-11T09:27:13Z</time>
      </trkpt>
      <trkpt lat="43.0218" lon="0.26299">
        <ele>507.73</ele>
        <time>2013-03-11T09:28:22Z</time>
      </trkpt>
      <trkpt lat="43.02113" lon="0.26295">
        <ele>512.576</ele>
        <time>2013-03-11T09:30:09Z</time>
      </trkpt>
      <trkpt lat="43.01974" lon="0.26359">
        <ele>515.94</ele>
        <time>2013-03-11T09:32:44Z</time>
      </trkpt>
      <trkpt lat="43.01945" lon="0.26358">
        <ele>515.446</ele>
        <time>2013-03-11T09:33:25Z</time>
      </trkpt>
      <trkpt lat="43.01897" lon="0.265">
        <ele>523.187</ele>
        <time>2013-03-11T09:35:23Z</time>
      </trkpt>
      <trkpt lat="43.0191" lon="0.266">
        <ele>533.742</ele>
        <time>2013-03-11T09:36:49Z</time>
      </trkpt>
      <trkpt lat="43.01848" lon="0.26663">
        <ele>541.426</ele>
        <time>2013-03-11T09:37:57Z</time>
      </trkpt>
      <trkpt lat="43.01818" lon="0.26749">
        <ele>549.507</ele>
        <time>2013-03-11T09:39:32Z</time>
      </trkpt>
      <trkpt lat="43.01751" lon="0.26795">
        <ele>547.172</ele>
        <time>2013-03-11T09:42:01Z</time>
      </trkpt>
      <trkpt lat="43.01689" lon="0.26926">
        <ele>543.889</ele>
        <time>2013-03-11T09:43:48Z</time>
      </trkpt>
      <trkpt lat="43.01602" lon="0.26939">
        <ele>542.898</ele>
        <time>2013-03-11T09:44:59Z</time>
      </trkpt>
      <trkpt lat="43.0154" lon="0.26963">
        <ele>547.686</ele>
        <time>2013-03-11T09:46:19Z</time>
      </trkpt>
      <trkpt lat="43.01539" lon="0.26974">
        <ele>550.092</ele>
        <time>2013-03-11T09:46:52Z</time>
      </trkpt>
      <trkpt lat="43.0151" lon="0.26964">
        <ele>550.596</ele>
        <time>2013-03-11T09:47:32Z</time>
      </trkpt>
      <trkpt lat="43.01449" lon="0.26898">
        <ele>548.162</ele>
        <time>2013-03-11T09:48:46Z</time>
      </trkpt>
      <trkpt lat="43.01411" lon="0.2689">
        <ele>549.566</ele>
        <time>2013-03-11T09:49:20Z</time>
      </trkpt>
      <trkpt lat="43.01338" lon="0.26808">
        <ele>557.229</ele>
        <time>2013-03-11T09:51:21Z</time>
      </trkpt>
      <trkpt lat="43.01278" lon="0.26819">
        <ele>558.721</ele>
        <time>2013-03-11T09:52:25Z</time>
      </trkpt>
      <trkpt lat="43.01252" lon="0.26805">
        <ele>558.207</ele>
        <time>2013-03-11T09:52:45Z</time>
      </trkpt>
      <trkpt lat="43.01162" lon="0.26696">
        <ele>555.35</ele>
        <time>2013-03-11T09:55:14Z</time>
      </trkpt>
      <trkpt lat="43.01147" lon="0.26695">
        <ele>553.927</ele>
        <time>2013-03-11T09:55:34Z</time>
      </trkpt>
      <trkpt lat="43.01122" lon="0.26727">
        <ele>551.046</ele>
        <time>2013-03-11T09:57:08Z</time>
      </trkpt>
      <trkpt lat="43.01132" lon="0.26747">
        <ele>551.074</ele>
        <time>2013-03-11T09:57:36Z</time>
      </trkpt>
      <trkpt lat="43.0112" lon="0.26776">
        <ele>551.04</ele>
        <time>2013-03-11T09:58:02Z</time>
      </trkpt>
      <trkpt lat="43.01037" lon="0.26814">
        <ele>552.974</ele>
        <time>2013-03-11T10:00:06Z</time>
      </trkpt>
      <trkpt lat="43.00997" lon="0.26811">
        <ele>554.86</ele>
        <time>2013-03-11T10:00:51Z</time>
      </trkpt>
      <trkpt lat="43.00937" lon="0.26762">
        <ele>558.735</ele>
        <time>2013-03-11T10:03:36Z</time>
      </trkpt>
      <trkpt lat="43.01021" lon="0.26834">
        <ele>568.886</ele>
        <time>2013-03-11T10:07:00Z</time>
      </trkpt>
      <trkpt lat="43.01039" lon="0.26819">
        <ele>570.714</ele>
        <time>2013-03-11T10:07:50Z</time>
      </trkpt>
      <trkpt lat="43.01107" lon="0.26817">
        <ele>576.407</ele>
        <time>2013-03-11T10:12:08Z</time>
      </trkpt>
      <trkpt lat="43.01149" lon="0.26779">
        <ele>582.757</ele>
        <time>2013-03-11T10:13:14Z</time>
      </trkpt>
      <trkpt lat="43.01187" lon="0.26813">
        <ele>580.344</ele>
        <time>2013-03-11T10:14:22Z</time>
      </trkpt>
      <trkpt lat="43.01256" lon="0.26956">
        <ele>579.363</ele>
        <time>2013-03-11T10:16:40Z</time>
      </trkpt>
      <trkpt lat="43.01332" lon="0.2695">
        <ele>575.551</ele>
        <time>2013-03-11T10:18:00Z</time>
      </trkpt>
      <trkpt lat="43.01366" lon="0.26967">
        <ele>572.637</ele>
        <time>2013-03-11T10:18:38Z</time>
      </trkpt>
      <trkpt lat="43.01412" lon="0.27039">
        <ele>564.031</ele>
        <time>2013-03-11T10:21:11Z</time>
      </trkpt>
      <trkpt lat="43.01431" lon="0.27032">
        <ele>562.097</ele>
        <time>2013-03-11T10:21:33Z</time>
      </trkpt>
      <trkpt lat="43.01483" lon="0.27066">
        <ele>560.681</ele>
        <time>2013-03-11T10:22:42Z</time>
      </trkpt>
      <trkpt lat="43.01524" lon="0.27122">
        <ele>555.861</ele>
        <time>2013-03-11T10:23:41Z</time>
      </trkpt>
      <trkpt lat="43.01574" lon="0.27121">
        <ele>554.317</ele>
        <time>2013-03-11T10:24:50Z</time>
      </trkpt>
      <trkpt lat="43.01588" lon="0.27143">
        <ele>555.307</ele>
        <time>2013-03-11T10:25:15Z</time>
      </trkpt>
      <trkpt lat="43.01616" lon="0.27147">
        <ele>553.472</ele>
        <time>2013-03-11T10:25:48Z</time>
      </trkpt>
      <trkpt lat="43.01598" lon="0.27105">
        <ele>552.949</ele>
        <time>2013-03-11T10:26:45Z</time>
      </trkpt>
      <trkpt lat="43.01601" lon="0.27063">
        <ele>558.718</ele>
        <time>2013-03-11T10:27:22Z</time>
      </trkpt>
      <trkpt lat="43.01635" lon="0.27056">
        <ele>559.676</ele>
        <time>2013-03-11T10:28:31Z</time>
      </trkpt>
      <trkpt lat="43.01665" lon="0.27068">
        <ele>561.142</ele>
        <time>2013-03-11T10:29:12Z</time>
      </trkpt>
      <trkpt lat="43.0172" lon="0.27054">
        <ele>563.036</ele>
        <time>2013-03-11T10:30:34Z</time>
      </trkpt>
      <trkpt lat="43.01743" lon="0.27005">
        <ele>564.412</ele>
        <time>2013-03-11T10:31:44Z</time>
      </trkpt>
      <trkpt lat="43.01762" lon="0.27002">
        <ele>564.453</ele>
        <time>2013-03-11T10:32:16Z</time>
      </trkpt>
      <trkpt lat="43.01748" lon="0.2703">
        <ele>563.504</ele>
        <time>2013-03-11T10:32:53Z</time>
      </trkpt>
      <trkpt lat="43.01766" lon="0.27028">
        <ele>562.514</ele>
        <time>2013-03-11T10:33:42Z</time>
      </trkpt>
      <trkpt lat="43.0179" lon="0.26975">
        <ele>564.407</ele>
        <time>2013-03-11T10:34:38Z</time>
      </trkpt>
      <trkpt lat="43.01871" lon="0.26917">
        <ele>564.059</ele>
        <time>2013-03-11T10:36:24Z</time>
      </trkpt>
      <trkpt lat="43.01922" lon="0.26858">
        <ele>561.596</ele>
        <time>2013-03-11T10:37:34Z</time>
      </trkpt>
      <trkpt lat="43.01969" lon="0.26739">
        <ele>562.545</ele>
        <time>2013-03-11T10:39:22Z</time>
      </trkpt>
      <trkpt lat="43.02039" lon="0.26673">
        <ele>561.123</ele>
        <time>2013-03-11T10:40:42Z</time>
      </trkpt>
      <trkpt lat="43.02059" lon="0.26672">
        <ele>559.149</ele>
        <time>2013-03-11T10:41:07Z</time>
      </trkpt>
      <trkpt lat="43.02112" lon="0.26711">
        <ele>555.823</ele>
        <time>2013-03-11T10:42:10Z</time>
      </trkpt>
      <trkpt lat="43.02115" lon="0.26737">
        <ele>555.369</ele>
        <time>2013-03-11T10:45:44Z</time>
      </trkpt>
      <trkpt lat="43.0215" lon="0.2672">
        <ele>556.784</ele>
        <time>2013-03-11T10:46:24Z</time>
      </trkpt>
      <trkpt lat="43.02247" lon="0.26733">
        <ele>556.307</ele>
        <time>2013-03-11T10:48:08Z</time>
      </trkpt>
      <trkpt lat="43.02335" lon="0.26661">
        <ele>558.217</ele>
        <time>2013-03-11T10:50:27Z</time>
      </trkpt>
      <trkpt lat="43.02368" lon="0.26609">
        <ele>560.107</ele>
        <time>2013-03-11T10:51:24Z</time>
      </trkpt>
      <trkpt lat="43.02365" lon="0.26588">
        <ele>560.152</ele>
        <time>2013-03-11T10:52:08Z</time>
      </trkpt>
      <trkpt lat="43.02422" lon="0.26546">
        <ele>564.049</ele>
        <time>2013-03-11T10:53:26Z</time>
      </trkpt>
      <trkpt lat="43.02496" lon="0.26507">
        <ele>566.448</ele>
        <time>2013-03-11T10:54:39Z</time>
      </trkpt>
      <trkpt lat="43.02565" lon="0.26516">
        <ele>572.676</ele>
        <time>2013-03-11T10:57:12Z</time>
      </trkpt>
      <trkpt lat="43.02631" lon="0.26588">
        <ele>578.922</ele>
        <time>2013-03-11T10:59:30Z</time>
      </trkpt>
      <trkpt lat="43.02711" lon="0.26627">
        <ele>583.776</ele>
        <time>2013-03-11T11:00:59Z</time>
      </trkpt>
      <trkpt lat="43.02774" lon="0.26681">
        <ele>588.942</ele>
        <time>2013-03-11T11:02:07Z</time>
      </trkpt>
      <trkpt lat="43.02814" lon="0.26891">
        <ele>582.286</ele>
        <time>2013-03-11T11:04:46Z</time>
      </trkpt>
      <trkpt lat="43.02899" lon="0.27102">
        <ele>566.46</ele>
        <time>2013-03-11T11:08:16Z</time>
      </trkpt>
      <trkpt lat="43.02908" lon="0.2716">
        <ele>560.126</ele>
        <time>2013-03-11T11:08:59Z</time>
      </trkpt>
      <trkpt lat="43.02889" lon="0.27151">
        <ele>560.607</ele>
        <time>2013-03-11T11:09:34Z</time>
      </trkpt>
      <trkpt lat="43.02929" lon="0.27298">
        <ele>542.352</ele>
        <time>2013-03-11T11:11:38Z</time>
      </trkpt>
      <trkpt lat="43.02919" lon="0.27416">
        <ele>530.899</ele>
        <time>2013-03-11T11:13:00Z</time>
      </trkpt>
      <trkpt lat="43.02894" lon="0.2749">
        <ele>520.768</ele>
        <time>2013-03-11T11:14:41Z</time>
      </trkpt>
      <trkpt lat="43.02997" lon="0.27636">
        <ele>545.796</ele>
        <time>2013-03-11T11:17:29Z</time>
      </trkpt>
      <trkpt lat="43.03096" lon="0.27884">
        <ele>489.022</ele>
        <time>2013-03-11T11:20:25Z</time>
      </trkpt>
      <trkpt lat="43.03091" lon="0.27903">
        <ele>490.496</ele>
        <time>2013-03-11T11:20:41Z</time>
      </trkpt>
      <trkpt lat="43.03066" lon="0.27893">
        <ele>489.922</ele>
        <time>2013-03-11T11:21:08Z</time>
      </trkpt>
      <trkpt lat="43.03024" lon="0.27818">
        <ele>481.836</ele>
        <time>2013-03-11T11:22:15Z</time>
      </trkpt>
      <trkpt lat="43.02957" lon="0.27773">
        <ele>476.017</ele>
        <time>2013-03-11T11:23:20Z</time>
      </trkpt>
      <trkpt lat="43.02947" lon="0.27797">
        <ele>476.018</ele>
        <time>2013-03-11T11:23:37Z</time>
      </trkpt>
      <trkpt lat="43.02979" lon="0.27991">
        <ele>480.807</ele>
        <time>2013-03-11T11:26:08Z</time>
      </trkpt>
      <trkpt lat="43.02945" lon="0.28077">
        <ele>477.937</ele>
        <time>2013-03-11T11:27:14Z</time>
      </trkpt>
      <trkpt lat="43.03043" lon="0.28239">
        <ele>487.594</ele>
        <time>2013-03-11T11:29:44Z</time>
      </trkpt>
      <trkpt lat="43.03048" lon="0.28303">
        <ele>491.463</ele>
        <time>2013-03-11T11:30:40Z</time>
      </trkpt>
      <trkpt lat="43.0303" lon="0.28299">
        <ele>490.471</ele>
        <time>2013-03-11T11:31:57Z</time>
      </trkpt>
      <trkpt lat="43.03053" lon="0.28336">
        <ele>490.417</ele>
        <time>2013-03-11T11:33:08Z</time>
      </trkpt>
      <trkpt lat="43.03107" lon="0.28315">
        <ele>487.561</ele>
        <time>2013-03-11T11:34:11Z</time>
      </trkpt>
      <trkpt lat="43.03176" lon="0.28326">
        <ele>475.077</ele>
        <time>2013-03-11T11:37:02Z</time>
      </trkpt>
      <trkpt lat="43.03237" lon="0.28382">
        <ele>460.668</ele>
        <time>2013-03-11T11:38:26Z</time>
      </trkpt>
      <trkpt lat="43.03293" lon="0.28267">
        <ele>440.442</ele>
        <time>2013-03-11T11:41:11Z</time>
      </trkpt>
      <trkpt lat="43.03312" lon="0.28257">
        <ele>437.126</ele>
        <time>2013-03-11T11:41:31Z</time>
      </trkpt>
      <trkpt lat="43.03349" lon="0.28266">
        <ele>430.807</ele>
        <time>2013-03-11T11:42:05Z</time>
      </trkpt>
      <trkpt lat="43.03369" lon="0.2825">
        <ele>425.51</ele>
        <time>2013-03-11T11:42:37Z</time>
      </trkpt>
      <trkpt lat="43.03364" lon="0.28182">
        <ele>421.287</ele>
        <time>2013-03-11T11:43:32Z</time>
      </trkpt>
      <trkpt lat="43.03389" lon="0.2815">
        <ele>422.656</ele>
        <time>2013-03-11T11:44:40Z</time>
      </trkpt>
      <trkpt lat="43.03415" lon="0.28162">
        <ele>423.174</ele>
        <time>2013-03-11T11:45:02Z</time>
      </trkpt>
      <trkpt lat="43.03457" lon="0.28229">
        <ele>429.46</ele>
        <time>2013-03-11T11:47:09Z</time>
      </trkpt>
      <trkpt lat="43.03528" lon="0.28263">
        <ele>435.614</ele>
        <time>2013-03-11T11:48:46Z</time>
      </trkpt>
      <trkpt lat="43.03592" lon="0.28385">
        <ele>444.34</ele>
        <time>2013-03-11T11:50:54Z</time>
      </trkpt>
      <trkpt lat="43.03619" lon="0.28486">
        <ele>449.635</ele>
        <time>2013-03-11T11:52:12Z</time>
      </trkpt>
      <trkpt lat="43.03646" lon="0.28489">
        <ele>452.086</ele>
        <time>2013-03-11T11:52:39Z</time>
      </trkpt>
      <trkpt lat="43.03671" lon="0.28441">
        <ele>453.414</ele>
        <time>2013-03-11T11:55:34Z</time>
      </trkpt>
      <trkpt lat="43.03724" lon="0.28449">
        <ele>456.807</ele>
        <time>2013-03-11T12:13:56Z</time>
      </trkpt>
      <trkpt lat="43.03753" lon="0.28437">
        <ele>459.277</ele>
        <time>2013-03-11T12:14:24Z</time>
      </trkpt>
      <trkpt lat="43.03829" lon="0.28368">
        <ele>462.564</ele>
        <time>2013-03-11T12:15:48Z</time>
      </trkpt>
      <trkpt lat="43.03888" lon="0.28168">
        <ele>467.823</ele>
        <time>2013-03-11T12:19:01Z</time>
      </trkpt>
      <trkpt lat="43.03835" lon="0.2809">
        <ele>477.941</ele>
        <time>2013-03-11T12:20:41Z</time>
      </trkpt>
      <trkpt lat="43.03738" lon="0.27997">
        <ele>489.487</ele>
        <time>2013-03-11T12:23:01Z</time>
      </trkpt>
      <trkpt lat="43.03667" lon="0.27974">
        <ele>499.581</ele>
        <time>2013-03-11T12:24:40Z</time>
      </trkpt>
      <trkpt lat="43.03622" lon="0.27989">
        <ele>506.367</ele>
        <time>2013-03-11T12:28:41Z</time>
      </trkpt>
      <trkpt lat="43.03608" lon="0.27957">
        <ele>509.235</ele>
        <time>2013-03-11T12:29:15Z</time>
      </trkpt>
      <trkpt lat="43.03613" lon="0.27931">
        <ele>511.686</ele>
        <time>2013-03-11T12:29:48Z</time>
      </trkpt>
      <trkpt lat="43.03634" lon="0.27921">
        <ele>516.414</ele>
        <time>2013-03-11T12:30:46Z</time>
      </trkpt>
      <trkpt lat="43.03662" lon="0.27677">
        <ele>548.107</ele>
        <time>2013-03-11T12:36:31Z</time>
      </trkpt>
      <trkpt lat="43.03762" lon="0.27266">
        <ele>561.567</ele>
        <time>2013-03-11T12:44:57Z</time>
      </trkpt>
      <trkpt lat="43.03774" lon="0.27014">
        <ele>575.094</ele>
        <time>2013-03-11T12:49:18Z</time>
      </trkpt>
      <trkpt lat="43.03835" lon="0.26767">
        <ele>590.453</ele>
        <time>2013-03-11T12:54:01Z</time>
      </trkpt>
      <trkpt lat="43.03803" lon="0.2665">
        <ele>598.631</ele>
        <time>2013-03-11T12:55:48Z</time>
      </trkpt>
      <trkpt lat="43.03776" lon="0.26631">
        <ele>601.057</ele>
        <time>2013-03-11T12:56:22Z</time>
      </trkpt>
      <trkpt lat="43.03663" lon="0.26671">
        <ele>610.121</ele>
        <time>2013-03-11T12:58:31Z</time>
      </trkpt>
      <trkpt lat="43.0365" lon="0.2667">
        <ele>611.117</ele>
        <time>2013-03-11T12:59:51Z</time>
      </trkpt>
      <trkpt lat="43.03653" lon="0.26652">
        <ele>611.141</ele>
        <time>2013-03-11T13:00:26Z</time>
      </trkpt>
      <trkpt lat="43.03616" lon="0.26685">
        <ele>610.181</ele>
        <time>2013-03-11T13:02:16Z</time>
      </trkpt>
      <trkpt lat="43.03521" lon="0.26649">
        <ele>603.409</ele>
        <time>2013-03-11T13:03:42Z</time>
      </trkpt>
      <trkpt lat="43.03278" lon="0.26886">
        <ele>579.307</ele>
        <time>2013-03-11T13:07:59Z</time>
      </trkpt>
      <trkpt lat="43.03254" lon="0.26881">
        <ele>577.498</ele>
        <time>2013-03-11T13:08:20Z</time>
      </trkpt>
      <trkpt lat="43.0319" lon="0.2678">
        <ele>563.575</ele>
        <time>2013-03-11T13:09:47Z</time>
      </trkpt>
      <trkpt lat="43.03125" lon="0.266">
        <ele>542.384</ele>
        <time>2013-03-11T13:12:16Z</time>
      </trkpt>
      <trkpt lat="43.03119" lon="0.26539">
        <ele>535.152</ele>
        <time>2013-03-11T13:12:55Z</time>
      </trkpt>
      <trkpt lat="43.03083" lon="0.26458">
        <ele>523.188</ele>
        <time>2013-03-11T13:13:55Z</time>
      </trkpt>
      <trkpt lat="43.02977" lon="0.26381">
        <ele>516.442</ele>
        <time>2013-03-11T13:15:38Z</time>
      </trkpt>
      <trkpt lat="43.02943" lon="0.26341">
        <ele>514.968</ele>
        <time>2013-03-11T13:16:17Z</time>
      </trkpt>
      <trkpt lat="43.02934" lon="0.26307">
        <ele>513.082</ele>
        <time>2013-03-11T13:16:40Z</time>
      </trkpt>
      <trkpt lat="43.02891" lon="0.26287">
        <ele>512.543</ele>
        <time>2013-03-11T13:17:18Z</time>
      </trkpt>
      <trkpt lat="43.02857" lon="0.26248">
        <ele>508.717</ele>
        <time>2013-03-11T13:17:55Z</time>
      </trkpt>
      <trkpt lat="43.02808" lon="0.26233">
        <ele>504.307</ele>
        <time>2013-03-11T13:18:36Z</time>
      </trkpt>
      <trkpt lat="43.02661" lon="0.26297">
        <ele>483.232</ele>
        <time>2013-03-11T13:20:50Z</time>
      </trkpt>
      <trkpt lat="43.02596" lon="0.26235">
        <ele>473.659</ele>
        <time>2013-03-11T13:21:54Z</time>
      </trkpt>
      <trkpt lat="43.02538" lon="0.26217">
        <ele>466.468</ele>
        <time>2013-03-11T13:22:47Z</time>
      </trkpt>
      <trkpt lat="43.025" lon="0.26261">
        <ele>464.996</ele>
        <time>2013-03-11T13:23:34Z</time>
      </trkpt>
      <trkpt lat="43.02496" lon="0.26292">
        <ele>465.462</ele>
        <time>2013-03-11T13:24:11Z</time>
      </trkpt>
      <trkpt lat="43.02471" lon="0.26328">
        <ele>466.926</ele>
        <time>2013-03-11T13:24:47Z</time>
      </trkpt>
      <trkpt lat="43.0242" lon="0.26275">
        <ele>468.892</ele>
        <time>2013-03-11T13:25:43Z</time>
      </trkpt>
      <trkpt lat="43.02365" lon="0.26271">
        <ele>472.164</ele>
        <time>2013-03-11T13:26:56Z</time>
      </trkpt>
    </trkseg>
  </trk>
</gpx>